createdAt,value
2018-11-22T00:03:01.461Z,3.80
2018-11-22T00:05:41.914Z,3.80
2018-11-22T00:08:21.550Z,3.90
2018-11-22T00:13:46.827Z,3.60
2018-11-22T00:16:26.271Z,3.70
2018-11-22T00:19:05.973Z,3.70
2018-11-22T00:21:45.948Z,3.70
2018-11-22T00:24:26.623Z,3.70
2018-11-22T00:27:06.159Z,3.70
2018-11-22T00:29:47.409Z,3.50
2018-11-22T00:32:27.793Z,3.60
2018-11-22T00:35:09.267Z,3.70
2018-11-22T00:40:37.934Z,3.50
2018-11-22T00:46:01.711Z,3.50
2018-11-22T00:51:53.673Z,3.30
2018-11-22T00:54:33.412Z,3.30
2018-11-22T00:57:12.893Z,3.30
2018-11-22T00:59:52.635Z,3.30
2018-11-22T01:02:33.623Z,3.30
2018-11-22T01:05:14.809Z,3.00
2018-11-22T01:07:54.665Z,3.10
2018-11-22T01:10:34.420Z,3.10
2018-11-22T01:13:14.159Z,3.10
2018-11-22T01:15:54.627Z,3.00
2018-11-22T01:18:34.493Z,3.00
2018-11-22T01:23:57.760Z,2.90
2018-11-22T01:26:37.383Z,2.90
2018-11-22T01:29:16.889Z,2.90
2018-11-22T01:31:57.026Z,2.90
2018-11-22T01:34:37.455Z,2.90
2018-11-22T01:40:03.671Z,2.90
2018-11-22T01:42:44.167Z,2.80
2018-11-22T01:45:25.034Z,3.00
2018-11-22T01:48:05.653Z,2.80
2018-11-22T01:50:45.349Z,2.80
2018-11-22T01:53:25.029Z,2.80
2018-11-22T01:56:06.581Z,2.80
2018-11-22T02:01:32.551Z,2.80
2018-11-22T02:04:12.383Z,2.80
2018-11-22T02:06:53.472Z,2.80
2018-11-22T02:09:33.771Z,2.90
2018-11-22T02:12:13.371Z,2.80
2018-11-22T02:14:59.659Z,2.80
2018-11-22T02:17:39.165Z,2.80
2018-11-22T02:23:04.635Z,2.80
2018-11-22T02:25:44.175Z,2.80
2018-11-22T02:28:23.787Z,2.70
2018-11-22T02:31:03.447Z,2.70
2018-11-22T02:33:43.132Z,2.70
2018-11-22T02:36:22.588Z,2.70
2018-11-22T02:39:02.521Z,2.70
2018-11-22T02:41:42.761Z,2.80
2018-11-22T02:44:23.854Z,2.70
2018-11-22T02:47:04.029Z,2.70
2018-11-22T02:49:43.880Z,2.80
2018-11-22T02:52:23.424Z,2.50
2018-11-22T02:55:03.896Z,2.60
2018-11-22T03:00:28.019Z,2.60
2018-11-22T03:03:08.495Z,2.70
2018-11-22T03:08:34.286Z,2.50
2018-11-22T03:11:14.100Z,2.60
2018-11-22T03:13:53.635Z,2.60
2018-11-22T03:16:34.515Z,2.50
2018-11-22T03:19:15.899Z,2.50
2018-11-22T03:28:07.488Z,2.70
2018-11-22T03:30:47.403Z,2.60
2018-11-22T03:33:28.247Z,2.60
2018-11-22T03:38:57.828Z,2.60
2018-11-22T03:41:39.093Z,2.50
2018-11-22T03:44:18.983Z,2.50
2018-11-22T03:49:42.637Z,2.50
2018-11-22T03:52:22.901Z,2.40
2018-11-22T03:55:02.843Z,2.40
2018-11-22T03:57:43.041Z,2.40
2018-11-22T04:00:24.556Z,2.40
2018-11-22T04:03:05.412Z,2.50
2018-11-22T04:05:46.270Z,2.40
2018-11-22T04:08:27.739Z,2.60
2018-11-22T04:14:02.988Z,2.50
2018-11-22T04:16:42.573Z,2.40
2018-11-22T04:19:22.229Z,2.40
2018-11-22T04:22:01.975Z,2.40
2018-11-22T04:24:41.867Z,2.40
2018-11-22T04:33:36.539Z,2.50
2018-11-22T04:36:16.137Z,2.50
2018-11-22T04:45:02.723Z,2.50
2018-11-22T04:50:14.425Z,2.30
2018-11-22T04:53:01.262Z,2.30
2018-11-22T04:55:41.027Z,2.30
2018-11-22T04:58:20.463Z,2.20
2018-11-22T05:00:59.989Z,2.30
2018-11-22T05:06:25.689Z,2.20
2018-11-22T05:09:05.525Z,2.20
2018-11-22T05:11:46.929Z,2.30
2018-11-22T05:14:26.595Z,2.30
2018-11-22T05:17:07.020Z,2.30
2018-11-22T05:22:32.328Z,2.30
2018-11-22T05:25:12.516Z,2.30
2018-11-22T05:27:52.731Z,2.30
2018-11-22T05:30:32.681Z,2.20
2018-11-22T05:35:58.875Z,2.30
2018-11-22T05:41:27.422Z,2.30
2018-11-22T05:46:52.824Z,2.30
2018-11-22T05:49:33.042Z,2.30
2018-11-22T05:52:13.422Z,2.10
2018-11-22T05:54:53.632Z,2.40
2018-11-22T05:57:34.946Z,2.40
2018-11-22T06:00:02.284Z,2.30
2018-11-22T06:02:49.370Z,2.30
2018-11-22T06:05:36.486Z,2.30
2018-11-22T06:08:17.327Z,2.40
2018-11-22T06:10:56.842Z,2.40
2018-11-22T06:13:36.340Z,2.40
2018-11-22T06:16:17.390Z,2.30
2018-11-22T06:18:58.899Z,2.40
2018-11-22T06:24:24.570Z,2.40
2018-11-22T06:27:06.964Z,2.30
2018-11-22T06:29:46.566Z,2.30
2018-11-22T06:32:27.796Z,2.30
2018-11-22T06:35:07.990Z,2.20
2018-11-22T06:40:31.050Z,2.30
2018-11-22T06:43:10.671Z,2.30
2018-11-22T06:45:50.223Z,2.20
2018-11-22T06:48:29.822Z,2.20
2018-11-22T06:51:09.578Z,2.20
2018-11-22T06:56:34.996Z,2.20
2018-11-22T06:59:15.036Z,2.00
2018-11-22T07:01:54.655Z,2.10
2018-11-22T07:04:34.906Z,2.00
2018-11-22T07:07:14.917Z,1.90
2018-11-22T07:09:57.578Z,1.80
2018-11-22T07:12:39.811Z,1.80
2018-11-22T07:15:20.473Z,1.70
2018-11-22T07:18:00.772Z,1.60
2018-11-22T07:20:40.300Z,1.60
2018-11-22T07:23:20.697Z,1.50
2018-11-22T07:26:00.354Z,1.50
2018-11-22T07:28:40.149Z,1.50
2018-11-22T07:31:19.830Z,1.40
2018-11-22T07:36:45.054Z,1.40
2018-11-22T07:44:55.151Z,1.50
2018-11-22T07:47:35.468Z,1.50
2018-11-22T07:50:16.459Z,1.50
2018-11-22T07:52:57.946Z,1.40
2018-11-22T07:55:38.374Z,1.50
2018-11-22T07:58:18.867Z,1.50
2018-11-22T08:03:44.186Z,1.60
2018-11-22T08:09:17.449Z,1.60
2018-11-22T08:11:58.724Z,1.60
2018-11-22T08:14:39.122Z,1.60
2018-11-22T08:19:59.284Z,1.80
2018-11-22T08:28:13.871Z,2.00
2018-11-22T08:30:53.894Z,1.90
2018-11-22T08:33:35.392Z,1.90
2018-11-22T08:38:58.834Z,2.10
2018-11-22T08:44:20.428Z,2.10
2018-11-22T08:47:00.200Z,2.20
2018-11-22T08:49:40.680Z,2.20
2018-11-22T08:52:20.421Z,2.30
2018-11-22T08:55:00.067Z,2.40
2018-11-22T09:00:29.850Z,2.50
2018-11-22T09:03:09.680Z,2.50
2018-11-22T09:05:49.203Z,2.50
2018-11-22T09:11:19.891Z,2.60
2018-11-22T12:17:46.995Z,6.60
2018-11-22T12:20:15.679Z,6.60
2018-11-22T12:22:44.723Z,6.70
2018-11-22T12:25:13.962Z,6.70
2018-11-22T12:27:42.804Z,6.70
2018-11-22T12:30:14.179Z,6.70
2018-11-22T12:32:51.591Z,6.70
2018-11-22T12:35:25.717Z,6.70
2018-11-22T12:37:59.127Z,6.70
2018-11-22T12:40:26.972Z,6.70
2018-11-22T12:42:54.971Z,6.80
2018-11-22T12:45:22.991Z,6.90
2018-11-22T12:47:51.173Z,6.80
2018-11-22T12:50:18.977Z,6.90
2018-11-22T12:52:46.857Z,7.00
2018-11-22T12:55:14.793Z,7.10
2018-11-22T12:57:43.104Z,7.20
2018-11-22T13:00:13.283Z,7.30
2018-11-22T13:02:42.402Z,7.20
2018-11-22T13:05:11.440Z,7.10
2018-11-22T13:07:39.511Z,7.20
2018-11-22T13:10:10.685Z,7.30
2018-11-22T13:12:38.979Z,7.30
2018-11-22T13:15:12.697Z,7.30
2018-11-22T13:17:40.572Z,7.40
2018-11-22T13:20:10.590Z,7.30
2018-11-22T13:22:38.577Z,7.30
2018-11-22T13:25:09.833Z,7.30
2018-11-22T13:27:37.707Z,7.30
2018-11-22T13:30:16.286Z,7.20
2018-11-22T13:32:45.006Z,7.20
2018-11-22T13:35:13.719Z,7.30
2018-11-22T13:37:42.807Z,7.40
2018-11-22T13:40:11.513Z,7.40
2018-11-22T13:42:40.305Z,7.40
2018-11-22T13:45:10.627Z,7.40
2018-11-22T13:47:40.715Z,7.40
2018-11-22T13:50:12.233Z,7.50
2018-11-22T13:52:40.105Z,7.50
2018-11-22T13:55:07.991Z,7.40
2018-11-22T13:57:37.437Z,7.40
2018-11-22T14:00:09.713Z,7.40
2018-11-22T14:02:37.621Z,7.40
2018-11-22T14:05:11.544Z,7.30
2018-11-22T14:07:35.014Z,7.30
2018-11-22T14:10:04.577Z,7.30
2018-11-22T14:12:32.536Z,7.30
2018-11-22T14:15:00.357Z,7.20
2018-11-22T14:17:28.225Z,7.30
2018-11-22T14:19:56.279Z,7.20
2018-11-22T14:22:24.323Z,7.20
2018-11-22T14:24:53.021Z,7.20
2018-11-22T14:27:21.125Z,7.20
2018-11-22T14:29:49.748Z,7.20
2018-11-22T14:32:17.603Z,7.10
2018-11-22T14:34:45.507Z,7.00
2018-11-22T14:37:13.449Z,7.00
2018-11-22T14:39:41.287Z,6.90
2018-11-22T14:42:09.143Z,6.90
2018-11-22T14:44:37.692Z,6.80
2018-11-22T14:47:05.565Z,6.70
2018-11-22T14:49:33.508Z,6.70
2018-11-22T14:52:01.385Z,6.50
2018-11-22T14:54:29.461Z,6.40
2018-11-22T14:56:57.385Z,6.20
2018-11-22T14:59:25.254Z,6.10
2018-11-22T15:01:53.179Z,6.00
2018-11-22T15:04:24.711Z,5.90
2018-11-22T15:06:52.723Z,5.90
2018-11-22T15:09:20.613Z,5.70
2018-11-22T15:11:49.273Z,5.70
2018-11-22T15:14:17.161Z,5.80
2018-11-22T15:16:45.030Z,5.80
2018-11-22T15:19:12.870Z,5.80
2018-11-22T15:21:40.704Z,5.70
2018-11-22T15:24:08.645Z,5.70
2018-11-22T15:26:36.621Z,5.70
2018-11-22T15:29:05.345Z,5.60
2018-11-22T15:31:34.224Z,5.70
2018-11-22T15:34:03.163Z,5.70
2018-11-22T15:36:31.903Z,5.70
2018-11-22T15:38:59.833Z,5.70
2018-11-22T15:41:27.645Z,5.70
2018-11-22T15:43:55.973Z,5.70
2018-11-22T15:46:23.903Z,5.70
2018-11-22T15:48:51.828Z,5.80
2018-11-22T15:51:19.876Z,5.70
2018-11-22T15:53:47.809Z,5.80
2018-11-22T15:56:15.721Z,5.70
2018-11-22T15:58:43.664Z,5.70
2018-11-22T16:01:11.584Z,5.70
2018-11-22T16:03:39.612Z,5.70
2018-11-22T16:06:21.364Z,5.70
2018-11-22T16:08:54.521Z,5.70
2018-11-22T16:11:27.590Z,5.70
2018-11-22T16:13:55.525Z,5.70
2018-11-22T16:16:23.437Z,5.70
2018-11-22T16:18:51.711Z,5.60
2018-11-22T16:21:20.541Z,5.60
2018-11-22T16:23:48.454Z,5.50
2018-11-22T16:26:16.362Z,5.40
2018-11-22T16:28:44.980Z,5.30
2018-11-22T16:31:14.073Z,5.30
2018-11-22T16:33:42.550Z,5.20
2018-11-22T16:36:10.435Z,5.30
2018-11-22T16:38:38.464Z,5.20
2018-11-22T16:41:07.195Z,5.20
2018-11-22T16:43:35.166Z,5.10
2018-11-22T16:46:04.156Z,5.10
2018-11-22T16:48:32.073Z,5.10
2018-11-22T16:50:59.996Z,5.10
2018-11-22T16:53:27.967Z,5.10
2018-11-22T16:55:56.619Z,5.00
2018-11-22T16:58:24.532Z,4.90
2018-11-22T17:00:53.776Z,4.90
2018-11-22T17:03:21.987Z,4.80
2018-11-22T17:05:49.864Z,4.80
2018-11-22T17:08:17.746Z,4.80
2018-11-22T17:10:45.641Z,4.80
2018-11-22T17:13:13.591Z,4.80
2018-11-22T17:15:42.240Z,4.90
2018-11-22T17:18:10.822Z,4.90
2018-11-22T17:20:38.779Z,4.90
2018-11-22T17:23:07.213Z,4.90
2018-11-22T17:25:35.720Z,4.90
2018-11-22T17:28:05.383Z,4.80
2018-11-22T17:30:41.705Z,4.80
2018-11-22T17:33:12.478Z,4.80
2018-11-22T17:35:41.365Z,4.70
2018-11-22T17:38:13.089Z,4.60
2018-11-22T17:40:42.821Z,4.50
2018-11-22T17:43:10.781Z,4.40
2018-11-22T17:45:40.853Z,4.40
2018-11-22T17:48:08.955Z,4.40
2018-11-22T17:50:38.585Z,4.30
2018-11-22T17:53:07.395Z,4.20
2018-11-22T17:55:35.468Z,4.10
2018-11-22T17:58:03.503Z,4.10
2018-11-22T18:00:47.685Z,4.10
2018-11-22T18:03:15.582Z,4.00
2018-11-22T18:05:43.486Z,4.00
2018-11-22T18:08:11.500Z,3.90
2018-11-22T18:10:40.772Z,3.80
2018-11-22T18:13:08.680Z,3.70
2018-11-22T18:16:09.469Z,3.60
2018-11-22T18:18:37.750Z,3.50
2018-11-22T18:21:06.367Z,3.30
2018-11-22T18:23:35.270Z,3.30
2018-11-22T18:26:04.169Z,3.20
2018-11-22T18:28:32.514Z,3.20
2018-11-22T18:31:00.779Z,3.10
2018-11-22T18:33:28.702Z,3.10
2018-11-22T18:35:57.699Z,3.00
2018-11-22T18:38:26.254Z,3.00
2018-11-22T18:40:54.795Z,2.90
2018-11-22T18:43:25.004Z,2.90
2018-11-22T18:45:54.105Z,2.80
2018-11-22T18:48:22.262Z,2.80
2018-11-22T18:50:50.142Z,2.70
2018-11-22T18:53:18.263Z,2.60
2018-11-22T18:55:54.036Z,2.60
2018-11-22T18:58:22.085Z,2.60
2018-11-22T19:00:50.090Z,2.50
2018-11-22T19:03:19.052Z,2.50
2018-11-22T19:05:46.972Z,2.50
2018-11-22T19:08:14.915Z,2.50
2018-11-22T19:10:43.574Z,2.60
2018-11-22T19:13:13.069Z,2.60
2018-11-22T19:15:42.489Z,2.70
2018-11-22T19:18:11.025Z,2.80
2018-11-22T19:20:41.997Z,2.90
2018-11-22T19:23:10.506Z,2.90
2018-11-22T19:25:39.402Z,3.00
2018-11-22T19:28:07.908Z,3.00
2018-11-22T19:30:37.699Z,2.90
2018-11-22T19:33:07.224Z,2.90
2018-11-22T19:35:37.111Z,2.80
2018-11-22T19:38:05.457Z,2.80
2018-11-22T19:40:34.672Z,2.80
2018-11-22T19:43:03.859Z,2.70
2018-11-22T19:45:33.345Z,2.80
2018-11-22T19:48:01.315Z,2.70
2018-11-22T19:50:29.794Z,2.70
2018-11-22T19:52:58.707Z,2.60
2018-11-22T19:55:27.840Z,2.60
2018-11-22T19:57:57.176Z,2.50
2018-11-22T20:00:25.779Z,2.50
2018-11-22T20:02:54.601Z,2.40
2018-11-22T20:05:23.676Z,2.30
2018-11-22T20:07:53.260Z,2.20
2018-11-22T20:10:23.474Z,2.20
2018-11-22T20:12:51.458Z,2.20
2018-11-22T20:15:19.373Z,2.10
2018-11-22T20:17:48.140Z,2.00
2018-11-22T20:20:18.057Z,2.00
2018-11-22T20:22:45.018Z,1.90
2018-11-22T20:25:12.985Z,1.90
2018-11-22T20:27:41.244Z,1.90
2018-11-22T20:30:13.721Z,1.80
2018-11-22T20:32:41.818Z,1.80
2018-11-22T20:35:11.910Z,1.70
2018-11-22T20:37:39.953Z,1.70
2018-11-22T20:40:09.291Z,1.60
2018-11-22T20:42:37.823Z,1.60
2018-11-22T20:45:07.816Z,1.60
2018-11-22T20:47:35.862Z,1.60
2018-11-22T20:50:04.717Z,1.50
2018-11-22T20:52:32.667Z,1.50
2018-11-22T20:55:00.625Z,1.50
2018-11-22T20:57:28.589Z,1.50
2018-11-22T20:59:56.552Z,1.40
2018-11-22T21:02:24.513Z,1.30
2018-11-22T21:04:52.458Z,1.20
2018-11-22T21:07:20.430Z,1.20
2018-11-22T21:09:48.314Z,1.20
2018-11-22T21:12:16.188Z,1.20
2018-11-22T21:14:44.145Z,1.20
2018-11-22T21:17:12.046Z,1.10
2018-11-22T21:19:39.936Z,1.20
2018-11-22T21:22:08.066Z,1.10
2018-11-22T21:24:36.994Z,1.10
2018-11-22T21:27:05.147Z,1.20
2018-11-22T21:29:33.024Z,1.10
2018-11-22T21:32:01.061Z,1.00
2018-11-22T21:34:29.679Z,1.00
2018-11-22T21:36:57.748Z,1.10
2018-11-22T21:39:25.713Z,1.10
2018-11-22T21:41:53.683Z,1.10
2018-11-22T21:44:21.579Z,1.10
2018-11-22T21:46:49.478Z,1.10
2018-11-22T21:49:17.378Z,1.10
2018-11-22T21:51:45.276Z,1.10
2018-11-22T21:54:13.202Z,1.10
2018-11-22T21:56:41.039Z,1.00
2018-11-22T21:59:08.944Z,0.90
2018-11-22T22:01:36.911Z,0.90
2018-11-22T22:04:05.119Z,0.90
2018-11-22T22:06:33.020Z,0.80
2018-11-22T22:09:00.924Z,0.80
2018-11-22T22:11:28.805Z,0.80
2018-11-22T22:13:56.701Z,0.80
2018-11-22T22:16:24.700Z,0.70
2018-11-22T22:18:52.724Z,0.70
2018-11-22T22:21:20.596Z,0.80
2018-11-22T22:23:48.494Z,0.80
2018-11-22T22:26:16.376Z,0.70
2018-11-22T22:28:44.256Z,0.80
2018-11-22T22:31:12.195Z,0.70
2018-11-22T22:33:40.082Z,0.70
2018-11-22T22:36:07.984Z,0.60
2018-11-22T22:38:35.826Z,0.60
2018-11-22T22:41:04.458Z,0.60
2018-11-22T22:43:32.410Z,0.60
2018-11-22T22:46:00.276Z,0.60
2018-11-22T22:48:28.182Z,0.60
2018-11-22T22:50:56.044Z,0.60
2018-11-22T22:53:23.916Z,0.50
2018-11-22T22:55:51.892Z,0.40
2018-11-22T22:58:19.733Z,0.40
2018-11-22T23:00:48.648Z,0.40
2018-11-22T23:03:16.724Z,0.40
2018-11-22T23:05:44.704Z,0.40
2018-11-22T23:08:12.635Z,0.40
2018-11-22T23:10:40.533Z,0.40
2018-11-22T23:13:08.524Z,0.40
2018-11-22T23:15:36.528Z,0.40
2018-11-22T23:18:04.572Z,0.40
2018-11-22T23:20:33.816Z,0.40
2018-11-22T23:23:01.811Z,0.40
2018-11-22T23:25:30.014Z,0.40
2018-11-22T23:27:57.928Z,0.40
2018-11-22T23:30:33.594Z,0.40
2018-11-22T23:33:04.611Z,0.40
2018-11-22T23:35:32.513Z,0.40
2018-11-22T23:38:00.507Z,0.50
2018-11-22T23:40:29.525Z,0.50
2018-11-22T23:42:57.413Z,0.50
2018-11-22T23:45:27.656Z,0.50
2018-11-22T23:47:55.627Z,0.50
2018-11-22T23:50:24.943Z,0.50
2018-11-22T23:52:54.031Z,0.40
2018-11-22T23:55:21.941Z,0.40
2018-11-22T23:57:49.987Z,0.40
